createdAt,value
2019-04-23T00:03:45.772Z,3.57
2019-04-23T00:06:24.911Z,3.33
2019-04-23T00:11:25.876Z,3.83
2019-04-23T00:14:02.886Z,3.20
2019-04-23T00:19:01.083Z,3.10
2019-04-23T00:21:52.400Z,3.40
2019-04-23T00:27:23.952Z,3.33
2019-04-23T00:29:53.545Z,3.40
2019-04-23T00:32:23.514Z,3.50
2019-04-23T00:34:56.683Z,3.37
2019-04-23T00:37:35.582Z,3.60
2019-04-23T00:39:52.362Z,3.37
2019-04-23T00:42:41.614Z,3.20
2019-04-23T00:45:14.098Z,3.37
2019-04-23T00:47:32.975Z,3.60
2019-04-23T00:50:06.415Z,3.80
2019-04-23T00:52:33.568Z,3.40
2019-04-23T00:57:38.847Z,3.50
2019-04-23T01:00:14.036Z,3.60
2019-04-23T01:02:37.002Z,3.43
2019-04-23T01:05:11.841Z,3.67
2019-04-23T01:07:39.759Z,3.40
2019-04-23T01:10:32.667Z,3.60
2019-04-23T01:18:02.308Z,3.80
2019-04-23T01:20:40.619Z,3.60
2019-04-23T01:22:48.756Z,3.43
2019-04-23T01:25:42.626Z,3.87
2019-04-23T01:31:05.285Z,3.77
2019-04-23T01:36:16.447Z,3.70
2019-04-23T01:38:39.156Z,3.63
2019-04-23T01:41:09.265Z,3.60
2019-04-23T01:46:09.589Z,4.03
2019-04-23T01:48:50.304Z,4.17
2019-04-23T01:51:09.583Z,3.70
2019-04-23T01:53:45.222Z,4.27
2019-04-23T01:56:14.426Z,3.97
2019-04-23T01:58:45.100Z,4.33
2019-04-23T02:01:19.141Z,4.50
2019-04-23T02:03:56.100Z,3.93
2019-04-23T02:06:20.394Z,4.27
2019-04-23T02:08:52.407Z,4.70
2019-04-23T02:11:25.637Z,4.13
2019-04-23T02:13:55.409Z,4.20
2019-04-23T02:16:33.896Z,4.80
2019-04-23T02:21:35.252Z,4.87
2019-04-23T02:24:14.460Z,4.87
2019-04-23T02:29:26.636Z,4.80
2019-04-23T02:31:58.218Z,4.90
2019-04-23T02:34:31.004Z,4.70
2019-04-23T02:37:45.656Z,5.03
2019-04-23T02:52:09.509Z,5.83
2019-04-23T02:54:44.223Z,5.30
2019-04-23T02:57:05.716Z,5.77
2019-04-23T03:02:36.701Z,5.73
2019-04-23T03:09:53.820Z,5.70
2019-04-23T03:12:43.812Z,6.13
2019-04-23T03:17:59.102Z,6.00
2019-04-23T03:20:37.944Z,5.60
2019-04-23T03:23:25.302Z,5.50
2019-04-23T03:25:59.962Z,6.17
2019-04-23T03:28:37.707Z,5.53
2019-04-23T03:32:48.256Z,5.37
2019-04-23T03:43:38.982Z,6.60
2019-04-23T03:46:16.042Z,6.37
2019-04-23T03:51:11.851Z,6.80
2019-04-23T03:59:03.373Z,6.50
2019-04-23T04:01:22.896Z,7.00
2019-04-23T04:04:12.535Z,7.17
2019-04-23T04:08:58.281Z,6.57
2019-04-23T04:11:21.196Z,6.77
2019-04-23T04:14:10.248Z,7.03
2019-04-23T04:16:28.981Z,6.63
2019-04-23T04:19:19.945Z,6.77
2019-04-23T04:24:27.390Z,6.87
2019-04-23T04:29:11.653Z,6.97
2019-04-23T04:37:02.419Z,7.27
2019-04-23T04:39:15.144Z,7.33
2019-04-23T04:42:04.717Z,7.70
2019-04-23T04:46:50.536Z,7.37
2019-04-23T04:52:17.400Z,7.60
2019-04-23T04:57:05.425Z,8.20
2019-04-23T04:59:35.152Z,7.90
2019-04-23T05:02:20.884Z,7.83
2019-04-23T05:07:08.685Z,8.00
2019-04-23T05:09:52.156Z,7.63
2019-04-23T05:14:52.970Z,8.47
2019-04-23T05:17:48.899Z,8.47
2019-04-23T05:25:05.674Z,8.33
2019-04-23T05:27:47.218Z,7.63
2019-04-23T05:30:15.444Z,9.10
2019-04-23T05:32:48.943Z,8.20
2019-04-23T05:35:28.068Z,8.07
2019-04-23T05:38:05.339Z,7.30
2019-04-23T05:40:30.417Z,8.37
2019-04-23T05:42:54.782Z,8.10
2019-04-23T05:45:21.711Z,8.27
2019-04-23T05:47:58.684Z,8.80
2019-04-23T05:50:34.101Z,8.73
2019-04-23T05:52:59.737Z,8.30
2019-04-23T05:55:27.178Z,8.90
2019-04-23T05:58:03.675Z,7.70
2019-04-23T06:00:32.354Z,8.20
2019-04-23T06:03:04.906Z,8.90
2019-04-23T06:05:41.496Z,8.10
2019-04-23T06:08:28.822Z,7.93
2019-04-23T06:10:40.678Z,8.23
2019-04-23T06:13:06.622Z,8.07
2019-04-23T06:15:49.207Z,8.63
2019-04-23T06:18:16.863Z,8.10
2019-04-23T06:20:54.275Z,8.07
2019-04-23T06:23:26.819Z,8.27
2019-04-23T06:28:24.135Z,8.47
2019-04-23T06:30:58.919Z,7.90
2019-04-23T06:35:58.913Z,8.20
2019-04-23T06:38:45.032Z,8.20
2019-04-23T06:40:54.308Z,8.23
2019-04-23T06:43:32.056Z,7.77
2019-04-23T06:45:59.075Z,9.13
2019-04-23T06:51:12.582Z,8.30
2019-04-23T06:56:13.953Z,8.20
2019-04-23T06:58:37.354Z,7.97
2019-04-23T07:03:43.284Z,8.10
2019-04-23T07:06:22.306Z,8.40
2019-04-23T07:09:09.550Z,7.97
2019-04-23T07:11:23.319Z,8.30
2019-04-23T07:13:53.223Z,8.47
2019-04-23T07:16:14.654Z,8.57
2019-04-23T07:18:48.891Z,8.03
2019-04-23T07:26:30.429Z,8.37
2019-04-23T07:31:29.618Z,7.87
2019-04-23T07:39:06.052Z,8.17
2019-04-23T07:42:02.691Z,8.33
2019-04-23T07:45:18.368Z,8.67
2019-04-23T07:50:51.116Z,8.20
2019-04-23T07:53:13.103Z,9.03
2019-04-23T07:55:48.503Z,9.03
2019-04-23T08:05:49.734Z,9.07
2019-04-23T08:08:16.826Z,9.97
2019-04-23T08:11:42.379Z,8.40
2019-04-23T08:18:53.856Z,9.50
2019-04-23T08:24:06.734Z,9.50
2019-04-23T08:26:59.644Z,8.50
2019-04-23T08:29:27.616Z,8.73
2019-04-23T08:32:06.892Z,9.13
2019-04-23T08:37:09.056Z,9.50
2019-04-23T08:45:19.815Z,9.20
2019-04-23T08:48:09.018Z,8.43
2019-04-23T08:50:39.266Z,8.23
2019-04-23T08:53:17.905Z,9.23
2019-04-23T08:55:44.274Z,9.13
2019-04-23T08:58:14.347Z,9.00
2019-04-23T09:00:52.672Z,9.17
2019-04-23T09:03:31.385Z,8.53
2019-04-23T09:05:52.717Z,9.47
2019-04-23T09:08:32.389Z,9.63
2019-04-23T09:10:56.814Z,8.37
2019-04-23T09:18:21.025Z,8.87
2019-04-23T09:20:48.055Z,8.80
2019-04-23T09:23:26.356Z,9.10
2019-04-23T09:31:12.425Z,8.57
2019-04-23T09:34:00.176Z,9.47
2019-04-23T09:36:47.507Z,8.50
2019-04-23T09:39:36.190Z,9.50
2019-04-23T09:42:27.663Z,9.27
2019-04-23T09:45:11.070Z,9.00
2019-04-23T09:47:57.256Z,8.90
2019-04-23T09:50:33.513Z,8.33
2019-04-23T09:53:06.397Z,9.27
2019-04-23T09:58:03.130Z,8.87
2019-04-23T10:00:38.062Z,9.73
2019-04-23T10:02:59.106Z,9.73
2019-04-23T10:05:21.829Z,9.43
2019-04-23T10:07:49.418Z,9.40
2019-04-23T10:10:12.259Z,9.77
2019-04-23T10:12:42.036Z,9.83
2019-04-23T10:15:21.493Z,9.47
2019-04-23T10:17:46.430Z,9.80
2019-04-23T10:20:16.413Z,9.03
2019-04-23T10:22:46.285Z,9.87
2019-04-23T10:25:17.246Z,10.27
2019-04-23T10:27:53.264Z,9.63
2019-04-23T10:30:19.327Z,9.67
2019-04-23T10:32:49.535Z,9.17
2019-04-23T10:35:32.116Z,9.70
2019-04-23T10:37:58.562Z,10.00
2019-04-23T10:40:31.396Z,9.63
2019-04-23T10:42:56.494Z,9.90
2019-04-23T10:45:59.081Z,9.47
2019-04-23T10:49:23.801Z,10.37
2019-04-23T10:51:41.225Z,10.47
2019-04-23T10:54:23.438Z,10.17
2019-04-23T10:59:34.973Z,10.87
2019-04-23T11:02:29.753Z,10.20
2019-04-23T11:07:28.736Z,9.43
2019-04-23T11:12:42.114Z,10.63
2019-04-23T11:20:46.149Z,9.57
2019-04-23T11:23:08.121Z,9.17
2019-04-23T11:28:06.376Z,10.77
2019-04-23T11:30:41.376Z,9.30
2019-04-23T11:33:09.196Z,10.43
2019-04-23T11:36:06.242Z,11.07
2019-04-23T11:38:38.859Z,10.50
2019-04-23T11:40:35.654Z,10.63
2019-04-23T11:43:15.435Z,10.43
2019-04-23T11:48:33.281Z,10.33
2019-04-23T11:53:37.678Z,9.10
2019-04-23T12:01:40.873Z,9.70
2019-04-23T12:07:14.329Z,10.27
2019-04-23T12:09:58.283Z,10.00
2019-04-23T12:12:25.051Z,9.97
2019-04-23T12:15:11.705Z,9.73
2019-04-23T12:30:01.315Z,9.97
2019-04-23T12:35:04.072Z,9.43
2019-04-23T12:37:45.041Z,9.30
2019-04-23T12:45:29.025Z,9.20
2019-04-23T12:47:58.278Z,10.07
2019-04-23T12:53:00.624Z,8.43
2019-04-23T12:55:40.336Z,9.10
2019-04-23T12:57:52.214Z,9.20
2019-04-23T13:02:59.290Z,8.70
2019-04-23T13:08:05.708Z,8.67
2019-04-23T13:10:32.310Z,8.33
2019-04-23T13:13:17.249Z,8.63
2019-04-23T13:18:11.347Z,8.50
2019-04-23T13:20:36.841Z,7.70
2019-04-23T13:23:16.559Z,8.53
2019-04-23T13:28:27.970Z,8.33
2019-04-23T13:31:02.374Z,7.60
2019-04-23T13:38:36.260Z,7.67
2019-04-23T13:41:09.182Z,7.87
2019-04-23T13:48:34.432Z,7.20
2019-04-23T13:51:14.730Z,6.57
2019-04-23T13:56:09.166Z,7.30
2019-04-23T13:58:49.635Z,7.23
2019-04-23T14:01:25.428Z,7.43
2019-04-23T14:03:50.741Z,7.43
2019-04-23T14:14:00.045Z,7.40
2019-04-23T14:21:27.955Z,7.77
2019-04-23T14:28:57.294Z,8.07
2019-04-23T14:31:23.101Z,7.73
2019-04-23T14:34:04.929Z,8.00
2019-04-23T14:36:32.697Z,7.83
2019-04-23T14:39:06.135Z,7.33
2019-04-23T14:41:26.144Z,8.33
2019-04-23T14:49:18.902Z,7.70
2019-04-23T14:51:52.980Z,8.30
2019-04-23T14:54:33.367Z,8.20
2019-04-23T14:57:06.303Z,8.60
2019-04-23T14:59:15.809Z,8.63
2019-04-23T15:01:54.891Z,7.97
2019-04-23T15:04:32.137Z,8.30
2019-04-23T15:09:36.168Z,8.83
2019-04-23T15:12:09.645Z,8.50
2019-04-23T15:14:46.140Z,7.97
2019-04-23T15:17:05.516Z,8.70
2019-04-23T15:19:53.070Z,9.30
2019-04-23T15:22:16.765Z,8.97
2019-04-23T15:25:15.315Z,8.30
2019-04-23T15:28:00.114Z,8.93
2019-04-23T15:29:31.797Z,9.37
2019-04-23T15:32:19.860Z,9.00
2019-04-23T15:34:49.008Z,9.33
2019-04-23T15:37:32.567Z,9.10
2019-04-23T15:39:56.639Z,9.10
2019-04-23T15:42:26.678Z,9.50
2019-04-23T15:44:55.730Z,9.27
2019-04-23T15:47:25.281Z,9.77
2019-04-23T15:50:06.440Z,9.03
2019-04-23T15:52:33.339Z,9.43
2019-04-23T15:57:46.371Z,9.30
2019-04-23T15:59:58.964Z,9.73
2019-04-23T16:02:02.524Z,9.70
2019-04-23T16:04:31.894Z,10.33
2019-04-23T16:07:02.433Z,9.40
2019-04-23T16:10:05.877Z,10.00
2019-04-23T16:12:27.742Z,9.90
2019-04-23T16:15:06.587Z,11.03
2019-04-23T16:17:37.526Z,10.37
2019-04-23T16:20:23.296Z,9.90
2019-04-23T16:22:44.475Z,10.07
2019-04-23T16:25:18.607Z,10.00
2019-04-23T16:27:56.674Z,9.10
2019-04-23T16:30:25.745Z,9.87
2019-04-23T16:33:08.624Z,10.17
2019-04-23T16:36:01.813Z,10.27
2019-04-23T16:38:34.263Z,10.23
2019-04-23T16:41:07.906Z,9.77
2019-04-23T16:43:35.264Z,9.40
2019-04-23T16:48:42.627Z,9.17
2019-04-23T16:53:30.214Z,10.17
2019-04-23T16:56:13.066Z,9.80
2019-04-23T16:58:42.078Z,10.53
2019-04-23T17:01:08.558Z,10.10
2019-04-23T17:03:35.991Z,10.20
2019-04-23T17:06:26.781Z,9.70
2019-04-23T17:08:53.070Z,9.47
2019-04-23T17:11:15.164Z,9.73
2019-04-23T17:13:44.558Z,9.70
2019-04-23T17:16:23.380Z,9.93
2019-04-23T17:18:49.397Z,10.43
2019-04-23T17:21:18.390Z,9.43
2019-04-23T17:28:56.606Z,9.53
2019-04-23T17:34:01.045Z,9.97
2019-04-23T17:36:45.778Z,10.97
2019-04-23T17:39:32.556Z,9.33
2019-04-23T17:42:25.531Z,10.40
2019-04-23T17:45:17.057Z,10.30
2019-04-23T17:48:13.472Z,10.27
2019-04-23T17:50:52.736Z,10.67
2019-04-23T17:56:03.707Z,9.90
2019-04-23T18:01:14.577Z,10.17
2019-04-23T18:03:41.414Z,10.57
2019-04-23T18:06:14.218Z,10.40
2019-04-23T18:08:32.958Z,10.17
2019-04-23T18:11:13.029Z,10.77
2019-04-23T18:13:46.510Z,10.37
2019-04-23T18:16:21.586Z,10.53
2019-04-23T18:18:45.078Z,11.30
2019-04-23T18:24:50.655Z,11.57
2019-04-23T18:29:59.627Z,10.87
2019-04-23T18:33:33.947Z,10.47
2019-04-23T18:35:25.982Z,11.57
2019-04-23T18:37:56.469Z,11.60
2019-04-23T18:40:28.576Z,12.10
2019-04-23T18:43:06.216Z,12.27
2019-04-23T18:45:38.769Z,11.93
2019-04-23T18:48:33.028Z,12.30
2019-04-23T18:50:55.407Z,12.80
2019-04-23T18:53:32.341Z,12.00
2019-04-23T18:56:05.627Z,12.90
2019-04-23T18:58:22.896Z,12.27
2019-04-23T19:03:48.511Z,13.03
2019-04-23T19:12:14.450Z,12.90
2019-04-23T19:14:47.807Z,12.47
2019-04-23T19:17:43.001Z,12.40
2019-04-23T19:19:53.181Z,12.53
2019-04-23T19:22:38.020Z,12.80
2019-04-23T19:24:46.817Z,13.70
2019-04-23T19:30:03.135Z,13.50
2019-04-23T19:32:37.248Z,12.83
2019-04-23T19:34:58.999Z,13.30
2019-04-23T19:37:49.561Z,12.60
2019-04-23T19:40:00.907Z,13.17
2019-04-23T19:42:44.021Z,13.43
2019-04-23T19:45:04.722Z,12.97
2019-04-23T19:47:47.951Z,12.53
2019-04-23T19:50:17.992Z,12.87
2019-04-23T19:52:57.534Z,13.70
2019-04-23T19:55:17.402Z,13.23
2019-04-23T19:58:02.329Z,13.03
2019-04-23T20:00:44.439Z,13.07
2019-04-23T20:05:15.550Z,13.00
2019-04-23T20:08:00.495Z,12.87
2019-04-23T20:10:21.353Z,12.57
2019-04-23T20:12:44.836Z,13.10
2019-04-23T20:15:14.256Z,12.93
2019-04-23T20:17:54.620Z,14.30
2019-04-23T20:20:26.461Z,13.43
2019-04-23T20:23:00.097Z,12.93
2019-04-23T20:31:57.239Z,13.33
2019-04-23T20:31:58.238Z,13.13
2019-04-23T20:33:55.509Z,12.27
2019-04-23T20:36:10.748Z,14.90
2019-04-23T20:43:54.066Z,13.77
2019-04-23T20:46:14.936Z,13.30
2019-04-23T20:49:00.916Z,13.83
2019-04-23T20:51:18.751Z,12.77
2019-04-23T20:56:25.405Z,14.17
2019-04-23T20:59:01.399Z,13.37
2019-04-23T21:02:02.538Z,13.73
2019-04-23T21:04:17.888Z,13.70
2019-04-23T21:06:56.504Z,13.60
2019-04-23T21:09:33.410Z,14.27
2019-04-23T21:12:00.761Z,13.63
2019-04-23T21:14:39.842Z,14.27
2019-04-23T21:17:16.780Z,14.50
2019-04-23T21:19:37.591Z,13.67
2019-04-23T21:22:09.068Z,14.13
2019-04-23T21:24:42.441Z,13.77
2019-04-23T21:27:32.728Z,14.27
2019-04-23T21:32:33.263Z,14.90
2019-04-23T21:35:02.737Z,13.20
2019-04-23T21:37:42.859Z,15.43
2019-04-23T21:40:42.431Z,14.73
2019-04-23T21:43:01.203Z,15.20
2019-04-23T21:45:40.718Z,14.57
2019-04-23T21:50:43.826Z,14.70
2019-04-23T21:53:12.178Z,15.30
2019-04-23T21:55:47.228Z,15.77
2019-04-23T22:00:53.070Z,14.93
2019-04-23T22:03:18.131Z,14.83
2019-04-23T22:05:51.350Z,15.50
2019-04-23T22:08:08.447Z,15.97
2019-04-23T22:10:57.344Z,15.30
2019-04-23T22:13:20.266Z,15.33
2019-04-23T22:16:03.828Z,15.53
2019-04-23T22:18:23.518Z,15.83
2019-04-23T22:21:00.000Z,15.63
2019-04-23T22:23:18.154Z,15.80
2019-04-23T22:25:56.385Z,15.70
2019-04-23T22:28:31.427Z,14.80
2019-04-23T22:31:10.724Z,16.00
2019-04-23T22:33:27.180Z,15.03
2019-04-23T22:36:04.584Z,16.07
2019-04-23T22:38:29.547Z,16.37
2019-04-23T22:43:37.698Z,15.80
2019-04-23T22:48:47.610Z,16.47
2019-04-23T22:51:24.070Z,15.27
2019-04-23T22:53:48.514Z,16.13
2019-04-23T22:56:13.764Z,15.33
2019-04-23T22:58:51.644Z,16.93
2019-04-23T23:04:00.141Z,16.13
2019-04-23T23:09:12.059Z,14.80
2019-04-23T23:11:40.742Z,16.50
2019-04-23T23:16:40.396Z,15.77
2019-04-23T23:21:42.650Z,16.40
2019-04-23T23:24:09.629Z,15.50
2019-04-23T23:26:44.781Z,16.33
2019-04-23T23:29:06.351Z,16.33
2019-04-23T23:31:42.218Z,16.87
2019-04-23T23:34:15.985Z,16.03
2019-04-23T23:36:46.875Z,16.03
2019-04-23T23:39:22.712Z,16.73
2019-04-23T23:41:55.079Z,16.37
2019-04-23T23:44:35.129Z,15.83
2019-04-23T23:46:56.321Z,15.77
2019-04-23T23:49:19.790Z,15.97
2019-04-23T23:51:49.477Z,15.93
2019-04-23T23:57:06.700Z,15.47
2019-04-23T23:59:26.829Z,16.17
